sensor_id;sensor_type;location;lat;lon;timestamp;P1;durP1;ratioP1;P2;durP2;ratioP2
18435;SDS011;9346;52.006;4.720;2023-04-12T00:01:42;9.43;;;2.27;;
18435;SDS011;9346;52.006;4.720;2023-04-12T00:04:09;6.60;;;2.50;;
18435;SDS011;9346;52.006;4.720;2023-04-12T00:06:38;4.87;;;1.60;;
18435;SDS011;9346;52.006;4.720;2023-04-12T00:09:05;3.80;;;2.10;;
18435;SDS011;9346;52.006;4.720;2023-04-12T00:11:32;5.97;;;1.70;;
18435;SDS011;9346;52.006;4.720;2023-04-12T00:14:00;2.90;;;1.77;;
18435;SDS011;9346;52.006;4.720;2023-04-12T00:16:29;5.53;;;2.27;;
18435;SDS011;9346;52.006;4.720;2023-04-12T00:18:56;7.57;;;1.97;;
18435;SDS011;9346;52.006;4.720;2023-04-12T00:21:23;4.47;;;2.40;;
18435;SDS011;9346;52.006;4.720;2023-04-12T00:23:52;8.97;;;2.70;;
18435;SDS011;9346;52.006;4.720;2023-04-12T00:26:19;3.20;;;1.60;;
18435;SDS011;9346;52.006;4.720;2023-04-12T00:28:46;5.07;;;2.20;;
18435;SDS011;9346;52.006;4.720;2023-04-12T00:31:14;9.33;;;2.60;;
18435;SDS011;9346;52.006;4.720;2023-04-12T00:33:42;4.20;;;2.77;;
18435;SDS011;9346;52.006;4.720;2023-04-12T00:36:10;3.13;;;1.97;;
18435;SDS011;9346;52.006;4.720;2023-04-12T00:38:37;2.77;;;1.93;;
18435;SDS011;9346;52.006;4.720;2023-04-12T00:41:05;4.40;;;1.40;;
18435;SDS011;9346;52.006;4.720;2023-04-12T00:43:32;4.17;;;1.60;;
18435;SDS011;9346;52.006;4.720;2023-04-12T00:45:59;3.43;;;1.13;;
18435;SDS011;9346;52.006;4.720;2023-04-12T00:48:27;1.90;;;1.20;;
18435;SDS011;9346;52.006;4.720;2023-04-12T00:50:57;3.67;;;1.27;;
18435;SDS011;9346;52.006;4.720;2023-04-12T00:53:25;2.93;;;1.07;;
18435;SDS011;9346;52.006;4.720;2023-04-12T00:55:52;4.50;;;1.70;;
18435;SDS011;9346;52.006;4.720;2023-04-12T00:58:20;1.53;;;1.10;;
18435;SDS011;9346;52.006;4.720;2023-04-12T01:00:48;2.33;;;1.17;;
18435;SDS011;9346;52.006;4.720;2023-04-12T01:03:16;3.30;;;1.20;;
18435;SDS011;9346;52.006;4.720;2023-04-12T01:05:48;3.80;;;1.47;;
18435;SDS011;9346;52.006;4.720;2023-04-12T01:08:30;12.20;;;1.67;;
18435;SDS011;9346;52.006;4.720;2023-04-12T01:11:04;2.87;;;1.43;;
18435;SDS011;9346;52.006;4.720;2023-04-12T01:13:39;4.27;;;1.60;;
18435;SDS011;9346;52.006;4.720;2023-04-12T01:16:11;2.70;;;1.30;;
18435;SDS011;9346;52.006;4.720;2023-04-12T01:18:44;6.80;;;1.37;;
18435;SDS011;9346;52.006;4.720;2023-04-12T01:21:17;2.77;;;0.97;;
18435;SDS011;9346;52.006;4.720;2023-04-12T01:23:52;2.37;;;1.27;;
18435;SDS011;9346;52.006;4.720;2023-04-12T01:26:38;1.40;;;1.13;;
18435;SDS011;9346;52.006;4.720;2023-04-12T01:29:11;1.17;;;1.07;;
18435;SDS011;9346;52.006;4.720;2023-04-12T01:31:41;4.33;;;1.10;;
18435;SDS011;9346;52.006;4.720;2023-04-12T01:34:13;3.97;;;1.40;;
18435;SDS011;9346;52.006;4.720;2023-04-12T01:36:42;3.50;;;1.07;;
18435;SDS011;9346;52.006;4.720;2023-04-12T01:39:13;3.73;;;0.93;;
18435;SDS011;9346;52.006;4.720;2023-04-12T01:41:40;4.07;;;1.57;;
18435;SDS011;9346;52.006;4.720;2023-04-12T01:44:12;1.80;;;1.20;;
18435;SDS011;9346;52.006;4.720;2023-04-12T01:46:40;1.00;;;0.90;;
18435;SDS011;9346;52.006;4.720;2023-04-12T01:49:08;1.67;;;1.00;;
18435;SDS011;9346;52.006;4.720;2023-04-12T01:51:38;4.10;;;1.43;;
18435;SDS011;9346;52.006;4.720;2023-04-12T01:54:16;4.53;;;1.00;;
18435;SDS011;9346;52.006;4.720;2023-04-12T01:56:49;2.13;;;1.13;;
18435;SDS011;9346;52.006;4.720;2023-04-12T01:59:24;1.30;;;1.00;;
18435;SDS011;9346;52.006;4.720;2023-04-12T02:01:53;1.23;;;0.90;;
18435;SDS011;9346;52.006;4.720;2023-04-12T02:04:21;1.80;;;0.90;;
18435;SDS011;9346;52.006;4.720;2023-04-12T02:06:51;5.63;;;1.53;;
18435;SDS011;9346;52.006;4.720;2023-04-12T02:09:19;1.43;;;1.07;;
18435;SDS011;9346;52.006;4.720;2023-04-12T02:11:46;2.80;;;1.10;;
18435;SDS011;9346;52.006;4.720;2023-04-12T02:14:13;3.10;;;1.30;;
18435;SDS011;9346;52.006;4.720;2023-04-12T02:16:42;3.00;;;1.20;;
18435;SDS011;9346;52.006;4.720;2023-04-12T02:19:09;2.47;;;1.40;;
18435;SDS011;9346;52.006;4.720;2023-04-12T02:21:40;1.93;;;1.10;;
18435;SDS011;9346;52.006;4.720;2023-04-12T02:24:08;2.07;;;1.40;;
18435;SDS011;9346;52.006;4.720;2023-04-12T02:26:35;4.13;;;1.10;;
18435;SDS011;9346;52.006;4.720;2023-04-12T02:29:02;2.27;;;1.30;;
18435;SDS011;9346;52.006;4.720;2023-04-12T02:31:31;1.00;;;0.73;;
18435;SDS011;9346;52.006;4.720;2023-04-12T02:34:02;1.80;;;1.47;;
18435;SDS011;9346;52.006;4.720;2023-04-12T02:36:29;1.20;;;0.80;;
18435;SDS011;9346;52.006;4.720;2023-04-12T02:38:56;3.27;;;1.00;;
18435;SDS011;9346;52.006;4.720;2023-04-12T02:41:23;1.93;;;1.17;;
18435;SDS011;9346;52.006;4.720;2023-04-12T02:43:50;2.70;;;1.43;;
18435;SDS011;9346;52.006;4.720;2023-04-12T02:46:18;1.80;;;1.10;;
18435;SDS011;9346;52.006;4.720;2023-04-12T02:48:46;2.57;;;1.50;;
18435;SDS011;9346;52.006;4.720;2023-04-12T02:51:15;4.53;;;1.27;;
18435;SDS011;9346;52.006;4.720;2023-04-12T02:53:42;1.50;;;0.93;;
18435;SDS011;9346;52.006;4.720;2023-04-12T02:56:09;3.43;;;1.33;;
18435;SDS011;9346;52.006;4.720;2023-04-12T02:58:38;1.57;;;1.03;;
18435;SDS011;9346;52.006;4.720;2023-04-12T03:01:05;2.97;;;1.07;;
18435;SDS011;9346;52.006;4.720;2023-04-12T03:03:33;4.00;;;1.33;;
18435;SDS011;9346;52.006;4.720;2023-04-12T03:06:00;0.93;;;0.77;;
18435;SDS011;9346;52.006;4.720;2023-04-12T03:08:29;2.10;;;0.93;;
18435;SDS011;9346;52.006;4.720;2023-04-12T03:10:56;8.63;;;1.53;;
18435;SDS011;9346;52.006;4.720;2023-04-12T03:13:23;4.77;;;1.30;;
18435;SDS011;9346;52.006;4.720;2023-04-12T03:15:53;1.37;;;0.93;;
18435;SDS011;9346;52.006;4.720;2023-04-12T03:18:21;2.30;;;1.00;;
18435;SDS011;9346;52.006;4.720;2023-04-12T03:20:48;1.40;;;1.03;;
18435;SDS011;9346;52.006;4.720;2023-04-12T03:23:16;3.00;;;1.07;;
18435;SDS011;9346;52.006;4.720;2023-04-12T03:25:45;6.77;;;1.70;;
18435;SDS011;9346;52.006;4.720;2023-04-12T03:28:12;2.37;;;1.20;;
18435;SDS011;9346;52.006;4.720;2023-04-12T03:30:39;4.17;;;1.30;;
18435;SDS011;9346;52.006;4.720;2023-04-12T03:33:05;1.37;;;1.23;;
18435;SDS011;9346;52.006;4.720;2023-04-12T03:35:32;4.30;;;1.37;;
18435;SDS011;9346;52.006;4.720;2023-04-12T03:37:59;2.07;;;1.40;;
18435;SDS011;9346;52.006;4.720;2023-04-12T03:40:26;1.33;;;1.23;;
18435;SDS011;9346;52.006;4.720;2023-04-12T03:42:55;2.97;;;1.10;;
18435;SDS011;9346;52.006;4.720;2023-04-12T03:45:21;1.10;;;0.80;;
18435;SDS011;9346;52.006;4.720;2023-04-12T03:47:49;2.03;;;1.20;;
18435;SDS011;9346;52.006;4.720;2023-04-12T03:50:16;1.40;;;1.17;;
18435;SDS011;9346;52.006;4.720;2023-04-12T03:52:43;4.37;;;1.53;;
18435;SDS011;9346;52.006;4.720;2023-04-12T03:55:10;2.03;;;1.10;;
18435;SDS011;9346;52.006;4.720;2023-04-12T03:57:37;1.37;;;1.17;;
18435;SDS011;9346;52.006;4.720;2023-04-12T04:00:07;3.47;;;1.13;;
18435;SDS011;9346;52.006;4.720;2023-04-12T04:02:35;3.47;;;1.33;;
18435;SDS011;9346;52.006;4.720;2023-04-12T04:05:02;2.93;;;1.17;;
18435;SDS011;9346;52.006;4.720;2023-04-12T04:07:30;4.93;;;1.60;;
18435;SDS011;9346;52.006;4.720;2023-04-12T04:09:57;1.20;;;1.10;;
18435;SDS011;9346;52.006;4.720;2023-04-12T04:12:24;1.70;;;1.50;;
18435;SDS011;9346;52.006;4.720;2023-04-12T04:14:52;2.43;;;1.50;;
18435;SDS011;9346;52.006;4.720;2023-04-12T04:17:20;3.93;;;1.50;;
18435;SDS011;9346;52.006;4.720;2023-04-12T04:19:47;1.97;;;1.17;;
18435;SDS011;9346;52.006;4.720;2023-04-12T04:22:15;3.70;;;1.90;;
18435;SDS011;9346;52.006;4.720;2023-04-12T04:24:45;3.53;;;1.67;;
18435;SDS011;9346;52.006;4.720;2023-04-12T04:27:14;3.30;;;1.93;;
18435;SDS011;9346;52.006;4.720;2023-04-12T04:29:41;2.97;;;1.80;;
18435;SDS011;9346;52.006;4.720;2023-04-12T04:32:09;1.97;;;1.30;;
18435;SDS011;9346;52.006;4.720;2023-04-12T04:34:38;2.43;;;1.60;;
18435;SDS011;9346;52.006;4.720;2023-04-12T04:37:05;1.77;;;1.40;;
18435;SDS011;9346;52.006;4.720;2023-04-12T04:39:32;1.90;;;1.43;;
18435;SDS011;9346;52.006;4.720;2023-04-12T04:41:59;3.43;;;1.53;;
18435;SDS011;9346;52.006;4.720;2023-04-12T04:44:26;3.27;;;1.50;;
18435;SDS011;9346;52.006;4.720;2023-04-12T04:46:53;5.17;;;1.53;;
18435;SDS011;9346;52.006;4.720;2023-04-12T04:49:20;1.60;;;1.33;;
18435;SDS011;9346;52.006;4.720;2023-04-12T04:51:49;3.43;;;1.43;;
18435;SDS011;9346;52.006;4.720;2023-04-12T04:54:15;2.67;;;2.13;;
18435;SDS011;9346;52.006;4.720;2023-04-12T04:56:42;2.20;;;1.90;;
18435;SDS011;9346;52.006;4.720;2023-04-12T04:59:09;7.07;;;2.13;;
18435;SDS011;9346;52.006;4.720;2023-04-12T05:01:36;3.93;;;2.27;;
18435;SDS011;9346;52.006;4.720;2023-04-12T05:04:05;3.10;;;2.10;;
18435;SDS011;9346;52.006;4.720;2023-04-12T05:06:32;4.07;;;2.50;;
18435;SDS011;9346;52.006;4.720;2023-04-12T05:09:00;5.07;;;3.23;;
18435;SDS011;9346;52.006;4.720;2023-04-12T05:11:28;4.10;;;2.53;;
18435;SDS011;9346;52.006;4.720;2023-04-12T05:13:55;3.60;;;2.70;;
18435;SDS011;9346;52.006;4.720;2023-04-12T05:16:21;5.03;;;3.40;;
18435;SDS011;9346;52.006;4.720;2023-04-12T05:18:48;5.00;;;3.50;;
18435;SDS011;9346;52.006;4.720;2023-04-12T05:21:15;4.37;;;3.03;;
18435;SDS011;9346;52.006;4.720;2023-04-12T05:23:43;4.57;;;3.43;;
18435;SDS011;9346;52.006;4.720;2023-04-12T05:26:14;4.73;;;3.37;;
18435;SDS011;9346;52.006;4.720;2023-04-12T05:28:41;6.70;;;3.73;;
18435;SDS011;9346;52.006;4.720;2023-04-12T05:31:09;6.80;;;3.90;;
18435;SDS011;9346;52.006;4.720;2023-04-12T05:33:36;12.67;;;4.50;;
18435;SDS011;9346;52.006;4.720;2023-04-12T05:36:03;7.30;;;3.90;;
18435;SDS011;9346;52.006;4.720;2023-04-12T05:38:30;8.03;;;3.10;;
18435;SDS011;9346;52.006;4.720;2023-04-12T05:40:57;5.40;;;3.80;;
18435;SDS011;9346;52.006;4.720;2023-04-12T05:43:30;6.43;;;3.40;;
18435;SDS011;9346;52.006;4.720;2023-04-12T05:45:58;5.17;;;3.67;;
18435;SDS011;9346;52.006;4.720;2023-04-12T05:48:25;6.07;;;4.13;;
18435;SDS011;9346;52.006;4.720;2023-04-12T05:50:52;6.90;;;4.60;;
18435;SDS011;9346;52.006;4.720;2023-04-12T05:53:19;6.03;;;4.33;;
18435;SDS011;9346;52.006;4.720;2023-04-12T05:55:49;12.47;;;4.67;;
18435;SDS011;9346;52.006;4.720;2023-04-12T05:58:18;12.20;;;4.10;;
18435;SDS011;9346;52.006;4.720;2023-04-12T06:00:46;4.87;;;4.10;;
18435;SDS011;9346;52.006;4.720;2023-04-12T06:03:13;10.80;;;3.53;;
18435;SDS011;9346;52.006;4.720;2023-04-12T06:05:40;8.87;;;4.70;;
18435;SDS011;9346;52.006;4.720;2023-04-12T06:08:07;5.60;;;3.60;;
18435;SDS011;9346;52.006;4.720;2023-04-12T06:10:36;9.70;;;4.33;;
18435;SDS011;9346;52.006;4.720;2023-04-12T06:13:03;8.77;;;3.87;;
18435;SDS011;9346;52.006;4.720;2023-04-12T06:15:30;13.97;;;4.33;;
18435;SDS011;9346;52.006;4.720;2023-04-12T06:17:59;10.03;;;4.57;;
18435;SDS011;9346;52.006;4.720;2023-04-12T06:20:25;11.67;;;4.67;;
18435;SDS011;9346;52.006;4.720;2023-04-12T06:22:55;6.87;;;4.20;;
18435;SDS011;9346;52.006;4.720;2023-04-12T06:25:22;10.87;;;4.47;;
18435;SDS011;9346;52.006;4.720;2023-04-12T06:27:50;7.80;;;4.20;;
18435;SDS011;9346;52.006;4.720;2023-04-12T06:30:17;8.67;;;3.67;;
18435;SDS011;9346;52.006;4.720;2023-04-12T06:32:44;7.73;;;3.90;;
18435;SDS011;9346;52.006;4.720;2023-04-12T06:35:15;9.27;;;3.97;;
18435;SDS011;9346;52.006;4.720;2023-04-12T06:37:44;8.30;;;3.27;;
18435;SDS011;9346;52.006;4.720;2023-04-12T06:40:11;6.53;;;3.07;;
18435;SDS011;9346;52.006;4.720;2023-04-12T06:42:38;11.50;;;3.00;;
18435;SDS011;9346;52.006;4.720;2023-04-12T06:45:05;14.23;;;3.20;;
18435;SDS011;9346;52.006;4.720;2023-04-12T06:47:33;11.77;;;3.03;;
18435;SDS011;9346;52.006;4.720;2023-04-12T06:50:00;9.90;;;2.80;;
18435;SDS011;9346;52.006;4.720;2023-04-12T06:52:28;20.07;;;3.50;;
18435;SDS011;9346;52.006;4.720;2023-04-12T06:54:55;12.90;;;3.27;;
18435;SDS011;9346;52.006;4.720;2023-04-12T06:57:22;7.67;;;1.93;;
18435;SDS011;9346;52.006;4.720;2023-04-12T06:59:49;15.30;;;2.80;;
18435;SDS011;9346;52.006;4.720;2023-04-12T07:02:16;24.63;;;3.23;;
18435;SDS011;9346;52.006;4.720;2023-04-12T07:04:43;13.73;;;2.27;;
18435;SDS011;9346;52.006;4.720;2023-04-12T07:07:11;12.83;;;2.80;;
18435;SDS011;9346;52.006;4.720;2023-04-12T07:09:39;14.17;;;2.90;;
18435;SDS011;9346;52.006;4.720;2023-04-12T07:12:07;27.03;;;3.83;;
18435;SDS011;9346;52.006;4.720;2023-04-12T07:14:34;12.50;;;2.00;;
18435;SDS011;9346;52.006;4.720;2023-04-12T07:17:01;11.50;;;2.50;;
18435;SDS011;9346;52.006;4.720;2023-04-12T07:19:27;15.10;;;3.57;;
18435;SDS011;9346;52.006;4.720;2023-04-12T07:21:55;17.97;;;3.03;;
18435;SDS011;9346;52.006;4.720;2023-04-12T07:24:22;14.83;;;2.33;;
18435;SDS011;9346;52.006;4.720;2023-04-12T07:26:53;26.10;;;2.50;;
18435;SDS011;9346;52.006;4.720;2023-04-12T07:29:20;20.77;;;2.87;;
18435;SDS011;9346;52.006;4.720;2023-04-12T07:31:47;15.67;;;2.63;;
18435;SDS011;9346;52.006;4.720;2023-04-12T07:34:14;17.87;;;3.87;;
18435;SDS011;9346;52.006;4.720;2023-04-12T07:36:41;15.90;;;2.30;;
18435;SDS011;9346;52.006;4.720;2023-04-12T07:39:09;20.10;;;3.30;;
18435;SDS011;9346;52.006;4.720;2023-04-12T07:41:36;12.60;;;1.80;;
18435;SDS011;9346;52.006;4.720;2023-04-12T07:44:05;15.77;;;2.40;;
18435;SDS011;9346;52.006;4.720;2023-04-12T07:46:32;15.37;;;2.53;;
18435;SDS011;9346;52.006;4.720;2023-04-12T07:48:58;20.80;;;2.93;;
18435;SDS011;9346;52.006;4.720;2023-04-12T07:51:25;10.60;;;2.40;;
18435;SDS011;9346;52.006;4.720;2023-04-12T07:53:52;13.27;;;1.90;;
18435;SDS011;9346;52.006;4.720;2023-04-12T07:56:19;11.10;;;2.53;;
18435;SDS011;9346;52.006;4.720;2023-04-12T07:58:46;15.50;;;3.20;;
18435;SDS011;9346;52.006;4.720;2023-04-12T08:01:15;17.57;;;3.17;;
18435;SDS011;9346;52.006;4.720;2023-04-12T08:03:42;15.47;;;3.00;;
18435;SDS011;9346;52.006;4.720;2023-04-12T08:06:09;16.47;;;2.53;;
18435;SDS011;9346;52.006;4.720;2023-04-12T08:08:36;21.30;;;3.73;;
18435;SDS011;9346;52.006;4.720;2023-04-12T08:11:03;8.63;;;1.93;;
18435;SDS011;9346;52.006;4.720;2023-04-12T08:13:30;14.53;;;3.03;;
18435;SDS011;9346;52.006;4.720;2023-04-12T08:15:57;5.97;;;2.03;;
18435;SDS011;9346;52.006;4.720;2023-04-12T08:18:26;5.83;;;1.73;;
18435;SDS011;9346;52.006;4.720;2023-04-12T08:20:53;9.07;;;1.77;;
18435;SDS011;9346;52.006;4.720;2023-04-12T08:23:21;12.20;;;1.77;;
18435;SDS011;9346;52.006;4.720;2023-04-12T08:25:48;11.27;;;2.37;;
18435;SDS011;9346;52.006;4.720;2023-04-12T08:28:15;4.27;;;1.30;;
18435;SDS011;9346;52.006;4.720;2023-04-12T08:30:42;11.83;;;2.27;;
18435;SDS011;9346;52.006;4.720;2023-04-12T08:33:09;8.87;;;2.03;;
18435;SDS011;9346;52.006;4.720;2023-04-12T08:35:37;11.43;;;1.90;;
18435;SDS011;9346;52.006;4.720;2023-04-12T08:38:05;13.00;;;2.00;;
18435;SDS011;9346;52.006;4.720;2023-04-12T08:40:32;13.63;;;1.90;;
18435;SDS011;9346;52.006;4.720;2023-04-12T08:43:00;8.93;;;1.83;;
18435;SDS011;9346;52.006;4.720;2023-04-12T08:45:28;9.80;;;1.90;;
18435;SDS011;9346;52.006;4.720;2023-04-12T08:47:58;16.37;;;2.23;;
18435;SDS011;9346;52.006;4.720;2023-04-12T08:50:27;7.67;;;1.70;;
18435;SDS011;9346;52.006;4.720;2023-04-12T08:52:56;8.87;;;1.53;;
18435;SDS011;9346;52.006;4.720;2023-04-12T08:55:24;7.17;;;2.07;;
18435;SDS011;9346;52.006;4.720;2023-04-12T08:57:52;7.37;;;1.87;;
18435;SDS011;9346;52.006;4.720;2023-04-12T09:00:20;6.97;;;1.63;;
18435;SDS011;9346;52.006;4.720;2023-04-12T09:02:48;7.73;;;1.70;;
18435;SDS011;9346;52.006;4.720;2023-04-12T09:05:15;13.93;;;2.00;;
18435;SDS011;9346;52.006;4.720;2023-04-12T09:07:41;5.97;;;1.60;;
18435;SDS011;9346;52.006;4.720;2023-04-12T09:10:10;7.80;;;1.40;;
18435;SDS011;9346;52.006;4.720;2023-04-12T09:12:56;4.57;;;2.07;;
18435;SDS011;9346;52.006;4.720;2023-04-12T09:15:23;10.47;;;1.93;;
18435;SDS011;9346;52.006;4.720;2023-04-12T09:18:01;7.43;;;2.00;;
18435;SDS011;9346;52.006;4.720;2023-04-12T09:20:30;5.20;;;1.57;;
18435;SDS011;9346;52.006;4.720;2023-04-12T09:22:57;6.63;;;1.80;;
18435;SDS011;9346;52.006;4.720;2023-04-12T09:25:36;13.27;;;2.23;;
18435;SDS011;9346;52.006;4.720;2023-04-12T09:28:16;8.47;;;2.17;;
18435;SDS011;9346;52.006;4.720;2023-04-12T09:30:45;6.10;;;1.70;;
18435;SDS011;9346;52.006;4.720;2023-04-12T09:33:15;10.87;;;1.90;;
18435;SDS011;9346;52.006;4.720;2023-04-12T09:35:43;10.63;;;2.00;;
18435;SDS011;9346;52.006;4.720;2023-04-12T09:38:10;7.47;;;2.40;;
18435;SDS011;9346;52.006;4.720;2023-04-12T09:40:39;10.27;;;2.47;;
18435;SDS011;9346;52.006;4.720;2023-04-12T09:43:06;12.63;;;2.30;;
18435;SDS011;9346;52.006;4.720;2023-04-12T09:45:34;8.80;;;2.20;;
18435;SDS011;9346;52.006;4.720;2023-04-12T09:48:03;13.10;;;2.33;;
18435;SDS011;9346;52.006;4.720;2023-04-12T09:50:32;7.87;;;2.17;;
18435;SDS011;9346;52.006;4.720;2023-04-12T09:53:00;5.27;;;1.43;;
18435;SDS011;9346;52.006;4.720;2023-04-12T09:55:29;12.00;;;1.80;;
18435;SDS011;9346;52.006;4.720;2023-04-12T09:58:01;6.63;;;1.50;;
18435;SDS011;9346;52.006;4.720;2023-04-12T10:00:29;11.60;;;2.00;;
18435;SDS011;9346;52.006;4.720;2023-04-12T10:02:58;6.90;;;1.77;;
18435;SDS011;9346;52.006;4.720;2023-04-12T10:05:25;8.07;;;1.77;;
18435;SDS011;9346;52.006;4.720;2023-04-12T10:07:53;7.33;;;1.40;;
18435;SDS011;9346;52.006;4.720;2023-04-12T10:10:20;11.43;;;2.83;;
18435;SDS011;9346;52.006;4.720;2023-04-12T10:12:48;7.97;;;2.00;;
18435;SDS011;9346;52.006;4.720;2023-04-12T10:15:17;4.30;;;1.47;;
18435;SDS011;9346;52.006;4.720;2023-04-12T10:17:46;10.07;;;1.97;;
18435;SDS011;9346;52.006;4.720;2023-04-12T10:20:15;7.47;;;1.60;;
18435;SDS011;9346;52.006;4.720;2023-04-12T10:22:43;6.60;;;1.53;;
18435;SDS011;9346;52.006;4.720;2023-04-12T10:25:12;8.13;;;1.87;;
18435;SDS011;9346;52.006;4.720;2023-04-12T10:27:40;7.80;;;1.83;;
18435;SDS011;9346;52.006;4.720;2023-04-12T10:30:21;4.23;;;1.53;;
18435;SDS011;9346;52.006;4.720;2023-04-12T10:35:54;5.20;;;1.40;;
18435;SDS011;9346;52.006;4.720;2023-04-12T10:38:23;12.50;;;2.10;;
18435;SDS011;9346;52.006;4.720;2023-04-12T10:43:49;10.43;;;2.10;;
18435;SDS011;9346;52.006;4.720;2023-04-12T10:49:16;5.63;;;1.47;;
18435;SDS011;9346;52.006;4.720;2023-04-12T10:54:40;5.23;;;1.00;;
18435;SDS011;9346;52.006;4.720;2023-04-12T10:57:07;10.37;;;1.57;;
18435;SDS011;9346;52.006;4.720;2023-04-12T11:00:13;3.80;;;1.10;;
18435;SDS011;9346;52.006;4.720;2023-04-12T11:08:26;3.80;;;1.10;;
18435;SDS011;9346;52.006;4.720;2023-04-12T11:10:58;7.17;;;1.27;;
18435;SDS011;9346;52.006;4.720;2023-04-12T11:13:30;3.37;;;1.07;;
18435;SDS011;9346;52.006;4.720;2023-04-12T11:16:00;2.70;;;0.70;;
18435;SDS011;9346;52.006;4.720;2023-04-12T11:18:29;7.27;;;1.53;;
18435;SDS011;9346;52.006;4.720;2023-04-12T11:20:58;5.63;;;1.30;;
18435;SDS011;9346;52.006;4.720;2023-04-12T11:23:25;6.57;;;1.20;;
18435;SDS011;9346;52.006;4.720;2023-04-12T11:25:52;2.57;;;0.63;;
18435;SDS011;9346;52.006;4.720;2023-04-12T11:28:20;1.30;;;0.57;;
18435;SDS011;9346;52.006;4.720;2023-04-12T11:30:50;3.30;;;0.90;;
18435;SDS011;9346;52.006;4.720;2023-04-12T11:33:31;2.50;;;1.10;;
18435;SDS011;9346;52.006;4.720;2023-04-12T11:35:58;3.97;;;0.83;;
18435;SDS011;9346;52.006;4.720;2023-04-12T11:38:30;2.57;;;0.90;;
18435;SDS011;9346;52.006;4.720;2023-04-12T11:40:57;0.70;;;0.60;;
18435;SDS011;9346;52.006;4.720;2023-04-12T11:43:24;2.03;;;0.50;;
18435;SDS011;9346;52.006;4.720;2023-04-12T11:45:56;2.93;;;0.67;;
18435;SDS011;9346;52.006;4.720;2023-04-12T11:48:24;2.90;;;0.90;;
18435;SDS011;9346;52.006;4.720;2023-04-12T11:50:51;1.70;;;0.60;;
18435;SDS011;9346;52.006;4.720;2023-04-12T11:53:18;6.03;;;1.00;;
18435;SDS011;9346;52.006;4.720;2023-04-12T11:55:48;3.20;;;0.90;;
18435;SDS011;9346;52.006;4.720;2023-04-12T11:58:16;4.20;;;0.70;;
18435;SDS011;9346;52.006;4.720;2023-04-12T12:00:43;4.43;;;1.00;;
18435;SDS011;9346;52.006;4.720;2023-04-12T12:03:12;1.73;;;0.70;;
18435;SDS011;9346;52.006;4.720;2023-04-12T12:05:40;2.37;;;0.50;;
18435;SDS011;9346;52.006;4.720;2023-04-12T12:08:07;0.87;;;0.57;;
18435;SDS011;9346;52.006;4.720;2023-04-12T12:10:35;2.07;;;0.83;;
18435;SDS011;9346;52.006;4.720;2023-04-12T12:13:08;0.83;;;0.60;;
18435;SDS011;9346;52.006;4.720;2023-04-12T12:15:35;3.10;;;0.90;;
18435;SDS011;9346;52.006;4.720;2023-04-12T12:18:02;0.73;;;0.50;;
18435;SDS011;9346;52.006;4.720;2023-04-12T12:20:39;3.07;;;1.03;;
18435;SDS011;9346;52.006;4.720;2023-04-12T12:23:07;3.10;;;1.00;;
18435;SDS011;9346;52.006;4.720;2023-04-12T12:25:34;3.30;;;0.80;;
18435;SDS011;9346;52.006;4.720;2023-04-12T12:28:01;1.03;;;0.50;;
18435;SDS011;9346;52.006;4.720;2023-04-12T12:30:29;4.03;;;0.67;;
18435;SDS011;9346;52.006;4.720;2023-04-12T12:32:56;0.70;;;0.53;;
18435;SDS011;9346;52.006;4.720;2023-04-12T12:35:23;3.83;;;0.90;;
18435;SDS011;9346;52.006;4.720;2023-04-12T12:37:53;2.37;;;0.90;;
18435;SDS011;9346;52.006;4.720;2023-04-12T12:40:29;3.30;;;0.90;;
18435;SDS011;9346;52.006;4.720;2023-04-12T12:42:57;2.53;;;0.90;;
18435;SDS011;9346;52.006;4.720;2023-04-12T12:45:25;2.47;;;0.50;;
18435;SDS011;9346;52.006;4.720;2023-04-12T12:47:53;3.27;;;0.80;;
18435;SDS011;9346;52.006;4.720;2023-04-12T12:50:22;2.93;;;1.57;;
18435;SDS011;9346;52.006;4.720;2023-04-12T12:52:51;2.57;;;0.90;;
18435;SDS011;9346;52.006;4.720;2023-04-12T12:55:20;5.07;;;0.77;;
18435;SDS011;9346;52.006;4.720;2023-04-12T12:57:50;2.43;;;0.80;;
18435;SDS011;9346;52.006;4.720;2023-04-12T13:00:18;2.83;;;0.63;;
18435;SDS011;9346;52.006;4.720;2023-04-12T13:02:47;8.77;;;1.40;;
18435;SDS011;9346;52.006;4.720;2023-04-12T13:05:14;2.83;;;1.17;;
18435;SDS011;9346;52.006;4.720;2023-04-12T13:07:41;7.43;;;0.97;;
18435;SDS011;9346;52.006;4.720;2023-04-12T13:10:11;4.33;;;1.00;;
18435;SDS011;9346;52.006;4.720;2023-04-12T13:12:38;1.30;;;0.60;;
18435;SDS011;9346;52.006;4.720;2023-04-12T13:15:06;1.63;;;0.60;;
18435;SDS011;9346;52.006;4.720;2023-04-12T13:17:33;2.90;;;0.87;;
18435;SDS011;9346;52.006;4.720;2023-04-12T13:20:00;5.90;;;0.73;;
18435;SDS011;9346;52.006;4.720;2023-04-12T13:22:28;3.40;;;0.83;;
18435;SDS011;9346;52.006;4.720;2023-04-12T13:24:55;2.17;;;0.53;;
18435;SDS011;9346;52.006;4.720;2023-04-12T13:27:23;4.87;;;0.93;;
18435;SDS011;9346;52.006;4.720;2023-04-12T13:29:50;0.67;;;0.60;;
18435;SDS011;9346;52.006;4.720;2023-04-12T13:32:17;1.20;;;0.53;;
18435;SDS011;9346;52.006;4.720;2023-04-12T13:34:44;0.20;;;0.20;;
18435;SDS011;9346;52.006;4.720;2023-04-12T13:37:11;1.40;;;0.67;;
18435;SDS011;9346;52.006;4.720;2023-04-12T13:39:37;0.90;;;0.70;;
18435;SDS011;9346;52.006;4.720;2023-04-12T13:42:05;1.67;;;0.93;;
18435;SDS011;9346;52.006;4.720;2023-04-12T13:44:35;1.73;;;0.50;;
18435;SDS011;9346;52.006;4.720;2023-04-12T13:47:02;4.63;;;0.63;;
18435;SDS011;9346;52.006;4.720;2023-04-12T13:49:29;4.50;;;1.03;;
18435;SDS011;9346;52.006;4.720;2023-04-12T13:51:56;1.03;;;0.60;;
18435;SDS011;9346;52.006;4.720;2023-04-12T13:54:23;0.50;;;0.50;;
18435;SDS011;9346;52.006;4.720;2023-04-12T13:56:50;0.80;;;0.80;;
18435;SDS011;9346;52.006;4.720;2023-04-12T13:59:16;2.03;;;0.50;;
18435;SDS011;9346;52.006;4.720;2023-04-12T14:01:45;2.33;;;0.70;;
18435;SDS011;9346;52.006;4.720;2023-04-12T14:04:11;1.53;;;0.47;;
18435;SDS011;9346;52.006;4.720;2023-04-12T14:06:38;4.83;;;0.87;;
18435;SDS011;9346;52.006;4.720;2023-04-12T14:09:05;0.67;;;0.40;;
18435;SDS011;9346;52.006;4.720;2023-04-12T14:11:43;1.30;;;0.53;;
18435;SDS011;9346;52.006;4.720;2023-04-12T14:14:11;1.10;;;0.50;;
18435;SDS011;9346;52.006;4.720;2023-04-12T14:16:38;1.80;;;0.50;;
18435;SDS011;9346;52.006;4.720;2023-04-12T14:19:07;0.33;;;0.30;;
18435;SDS011;9346;52.006;4.720;2023-04-12T14:21:34;0.40;;;0.40;;
18435;SDS011;9346;52.006;4.720;2023-04-12T14:24:01;0.20;;;0.20;;
18435;SDS011;9346;52.006;4.720;2023-04-12T14:26:28;0.27;;;0.20;;
18435;SDS011;9346;52.006;4.720;2023-04-12T14:28:55;0.37;;;0.37;;
18435;SDS011;9346;52.006;4.720;2023-04-12T14:31:22;0.53;;;0.33;;
18435;SDS011;9346;52.006;4.720;2023-04-12T14:33:49;0.80;;;0.60;;
18435;SDS011;9346;52.006;4.720;2023-04-12T14:36:18;1.47;;;0.50;;
18435;SDS011;9346;52.006;4.720;2023-04-12T14:38:45;1.53;;;0.80;;
18435;SDS011;9346;52.006;4.720;2023-04-12T14:41:12;0.30;;;0.30;;
18435;SDS011;9346;52.006;4.720;2023-04-12T14:43:39;0.77;;;0.60;;
18435;SDS011;9346;52.006;4.720;2023-04-12T14:46:06;2.87;;;0.90;;
18435;SDS011;9346;52.006;4.720;2023-04-12T14:48:33;3.40;;;0.50;;
18435;SDS011;9346;52.006;4.720;2023-04-12T14:50:59;2.00;;;0.60;;
18435;SDS011;9346;52.006;4.720;2023-04-12T14:53:29;1.00;;;0.53;;
18435;SDS011;9346;52.006;4.720;2023-04-12T14:55:56;0.80;;;0.80;;
18435;SDS011;9346;52.006;4.720;2023-04-12T14:58:24;1.73;;;0.90;;
18435;SDS011;9346;52.006;4.720;2023-04-12T15:00:53;5.80;;;0.67;;
18435;SDS011;9346;52.006;4.720;2023-04-12T15:03:20;2.37;;;0.80;;
18435;SDS011;9346;52.006;4.720;2023-04-12T15:05:47;1.40;;;0.43;;
18435;SDS011;9346;52.006;4.720;2023-04-12T15:08:14;3.13;;;0.73;;
18435;SDS011;9346;52.006;4.720;2023-04-12T15:10:43;2.03;;;0.50;;
18435;SDS011;9346;52.006;4.720;2023-04-12T15:13:10;1.30;;;0.90;;
18435;SDS011;9346;52.006;4.720;2023-04-12T15:15:37;1.50;;;0.57;;
18435;SDS011;9346;52.006;4.720;2023-04-12T15:18:05;3.50;;;0.53;;
18435;SDS011;9346;52.006;4.720;2023-04-12T15:20:32;1.93;;;0.70;;
18435;SDS011;9346;52.006;4.720;2023-04-12T15:23:00;3.87;;;0.80;;